createdAt,value
2023-02-02T00:01:58.833Z,0.10
2023-02-02T00:04:31.506Z,0.22
2023-02-02T00:06:59.734Z,0.20
2023-02-02T00:09:30.221Z,0.32
2023-02-02T00:11:59.637Z,0.30
2023-02-02T00:14:27.710Z,0.30
2023-02-02T00:16:56.741Z,0.20
2023-02-02T00:19:30.493Z,0.40
2023-02-02T00:21:58.305Z,0.30
2023-02-02T00:24:25.765Z,0.55
2023-02-02T00:26:59.949Z,0.33
2023-02-02T00:29:30.533Z,0.40
2023-02-02T00:31:58.300Z,0.30
2023-02-02T00:34:26.534Z,0.40
2023-02-02T00:36:53.896Z,0.38
2023-02-02T00:39:27.772Z,0.20
2023-02-02T00:41:55.358Z,0.73
2023-02-02T00:44:41.689Z,0.22
2023-02-02T00:47:09.116Z,0.40
2023-02-02T00:49:36.368Z,0.30
2023-02-02T00:52:04.011Z,0.20
2023-02-02T00:54:32.013Z,0.60
2023-02-02T00:56:59.857Z,0.60
2023-02-02T00:59:27.136Z,0.82
2023-02-02T01:01:54.455Z,0.35
2023-02-02T01:04:21.784Z,0.30
2023-02-02T01:06:49.039Z,0.43
2023-02-02T01:09:16.358Z,0.28
2023-02-02T01:11:43.612Z,0.25
2023-02-02T01:14:10.873Z,0.10
2023-02-02T01:16:38.198Z,0.17
2023-02-02T01:19:05.565Z,0.20
2023-02-02T01:21:32.965Z,0.20
2023-02-02T01:24:00.538Z,0.40
2023-02-02T01:26:27.915Z,0.13
2023-02-02T01:28:55.257Z,0.32
2023-02-02T01:31:22.938Z,0.22
2023-02-02T01:33:50.870Z,0.22
2023-02-02T01:36:21.560Z,0.40
2023-02-02T01:38:50.413Z,0.22
2023-02-02T01:41:24.070Z,0.80
2023-02-02T01:43:56.080Z,0.25
2023-02-02T01:46:29.596Z,0.40
2023-02-02T01:49:10.753Z,0.28
2023-02-02T01:51:59.124Z,0.22
2023-02-02T01:54:43.642Z,0.35
2023-02-02T01:57:35.064Z,0.45
2023-02-02T02:00:08.500Z,0.30
2023-02-02T02:02:38.584Z,0.32
2023-02-02T02:05:09.553Z,0.43
2023-02-02T02:07:40.193Z,0.22
2023-02-02T02:10:08.493Z,0.30
2023-02-02T02:15:38.492Z,0.65
2023-02-02T02:18:10.808Z,0.32
2023-02-02T02:21:44.416Z,0.47
2023-02-02T02:25:11.380Z,0.30
2023-02-02T02:28:10.776Z,0.40
2023-02-02T02:30:59.514Z,0.25
2023-02-02T02:33:43.035Z,0.25
2023-02-02T02:36:44.836Z,0.73
2023-02-02T02:39:29.781Z,0.52
2023-02-02T02:42:07.716Z,0.25
2023-02-02T02:44:36.727Z,0.28
2023-02-02T02:47:04.416Z,0.55
2023-02-02T02:49:31.791Z,0.40
2023-02-02T02:51:59.220Z,0.20
2023-02-02T02:54:31.416Z,0.60
2023-02-02T02:57:36.081Z,0.20
2023-02-02T03:00:34.045Z,0.30
2023-02-02T03:06:27.782Z,0.10
2023-02-02T03:09:18.590Z,0.10
2023-02-02T03:11:46.492Z,0.30
2023-02-02T03:14:14.475Z,0.40
2023-02-02T03:16:41.795Z,0.30
2023-02-02T03:19:09.410Z,0.28
2023-02-02T03:21:36.693Z,0.20
2023-02-02T03:24:04.300Z,0.10
2023-02-02T03:26:31.782Z,0.10
2023-02-02T03:29:00.532Z,0.25
2023-02-02T03:31:29.839Z,0.10
2023-02-02T03:33:57.191Z,0.20
2023-02-02T03:36:24.479Z,0.20
2023-02-02T03:38:51.687Z,0.10
2023-02-02T03:41:19.043Z,0.28
2023-02-02T03:43:46.382Z,0.20
2023-02-02T03:46:13.659Z,0.30
2023-02-02T03:48:40.924Z,0.22
2023-02-02T03:51:11.828Z,0.10
2023-02-02T03:53:40.703Z,0.47
2023-02-02T03:56:08.231Z,0.10
2023-02-02T03:58:35.636Z,0.10
2023-02-02T04:01:08.844Z,0.20
2023-02-02T04:03:36.138Z,0.32
2023-02-02T04:06:03.717Z,0.17
2023-02-02T04:08:31.644Z,0.80
2023-02-02T04:10:59.653Z,0.20
2023-02-02T04:13:26.979Z,0.13
2023-02-02T04:16:00.840Z,0.15
2023-02-02T04:18:29.005Z,0.17
2023-02-02T04:20:59.189Z,0.32
2023-02-02T04:23:27.516Z,0.20
2023-02-02T04:28:23.897Z,0.20
2023-02-02T04:30:53.011Z,0.40
2023-02-02T04:33:22.081Z,0.20
2023-02-02T04:35:49.543Z,0.20
2023-02-02T04:38:16.858Z,0.37
2023-02-02T04:40:47.985Z,0.20
2023-02-02T04:43:16.039Z,0.22
2023-02-02T04:45:43.468Z,0.30
2023-02-02T04:48:10.931Z,0.40
2023-02-02T04:50:38.334Z,0.20
2023-02-02T04:53:06.049Z,0.30
2023-02-02T04:55:37.970Z,0.32
2023-02-02T04:58:06.233Z,0.50
2023-02-02T05:03:01.567Z,0.20
2023-02-02T05:05:28.968Z,0.30
2023-02-02T05:07:56.343Z,0.37
2023-02-02T05:10:24.031Z,0.17
2023-02-02T05:12:53.931Z,0.30
2023-02-02T05:15:22.520Z,0.20
2023-02-02T05:17:50.164Z,0.45
2023-02-02T05:20:17.875Z,0.60
2023-02-02T05:22:49.528Z,0.30
2023-02-02T05:25:17.530Z,0.38
2023-02-02T05:27:46.333Z,0.60
2023-02-02T05:30:14.914Z,0.52
2023-02-02T05:32:42.388Z,0.50
2023-02-02T05:35:10.982Z,1.30
2023-02-02T05:37:38.371Z,1.00
2023-02-02T05:40:06.305Z,0.93
2023-02-02T05:42:33.603Z,0.77
2023-02-02T05:45:01.129Z,0.60
2023-02-02T05:47:28.612Z,1.38
2023-02-02T05:49:56.868Z,0.60
2023-02-02T05:54:52.805Z,0.50
2023-02-02T05:57:20.011Z,0.70
2023-02-02T05:59:47.381Z,0.82
2023-02-02T06:02:14.621Z,0.50
2023-02-02T06:04:41.953Z,0.38
2023-02-02T06:07:09.216Z,0.93
2023-02-02T06:09:36.544Z,0.50
2023-02-02T06:12:04.460Z,0.47
2023-02-02T06:14:32.229Z,0.60
2023-02-02T06:16:59.631Z,0.50
2023-02-02T06:19:26.995Z,0.77
2023-02-02T06:21:54.224Z,0.65
2023-02-02T06:24:21.502Z,0.70
2023-02-02T06:26:48.839Z,0.50
2023-02-02T06:29:16.551Z,0.63
2023-02-02T06:31:43.952Z,0.40
2023-02-02T06:34:15.324Z,0.50
2023-02-02T06:36:42.765Z,0.47
2023-02-02T06:39:10.395Z,0.97
2023-02-02T06:41:37.884Z,1.23
2023-02-02T06:44:05.695Z,0.40
2023-02-02T06:46:33.054Z,0.50
2023-02-02T06:49:00.469Z,0.63
2023-02-02T06:51:27.742Z,0.40
2023-02-02T06:53:55.402Z,0.63
2023-02-02T06:56:23.703Z,0.55
2023-02-02T06:58:51.055Z,0.63
2023-02-02T07:01:18.403Z,0.30
2023-02-02T07:03:51.248Z,0.73
2023-02-02T07:06:23.901Z,0.68
2023-02-02T07:08:57.520Z,0.63
2023-02-02T07:11:32.993Z,0.70
2023-02-02T07:14:02.098Z,0.80
2023-02-02T07:16:29.580Z,0.90
2023-02-02T07:18:57.720Z,1.60
2023-02-02T07:21:35.760Z,1.70
2023-02-02T07:24:05.496Z,0.55
2023-02-02T07:26:36.283Z,0.70
2023-02-02T07:29:05.171Z,0.40
2023-02-02T07:31:35.852Z,0.70
2023-02-02T07:34:03.876Z,0.95
2023-02-02T07:36:31.209Z,0.38
2023-02-02T07:38:58.514Z,1.50
2023-02-02T07:41:25.950Z,0.70
2023-02-02T07:43:53.502Z,0.65
2023-02-02T07:46:22.009Z,0.70
2023-02-02T07:48:49.523Z,0.55
2023-02-02T07:51:18.517Z,2.30
2023-02-02T07:53:49.319Z,1.23
2023-02-02T07:56:19.527Z,0.68
2023-02-02T07:58:47.283Z,0.75
2023-02-02T08:01:16.882Z,0.70
2023-02-02T08:03:45.349Z,0.80
2023-02-02T08:06:21.846Z,1.20
2023-02-02T08:08:50.126Z,1.55
2023-02-02T08:11:21.549Z,1.15
2023-02-02T08:13:52.075Z,0.98
2023-02-02T08:16:21.103Z,1.45
2023-02-02T08:18:49.083Z,0.80
2023-02-02T08:21:17.072Z,0.70
2023-02-02T08:23:45.807Z,0.80
2023-02-02T08:26:14.532Z,0.70
2023-02-02T08:28:44.338Z,0.73
2023-02-02T08:31:19.238Z,0.47
2023-02-02T08:33:46.669Z,0.52
2023-02-02T08:36:18.512Z,0.40
2023-02-02T08:38:46.426Z,0.70
2023-02-02T08:41:17.788Z,0.52
2023-02-02T08:43:45.986Z,0.90
2023-02-02T08:46:16.902Z,1.05
2023-02-02T08:48:44.987Z,2.67
2023-02-02T08:51:16.342Z,0.70
2023-02-02T08:53:44.320Z,0.73
2023-02-02T08:56:21.762Z,0.90
2023-02-02T08:58:55.443Z,1.10
2023-02-02T09:01:26.240Z,1.27
2023-02-02T09:03:59.538Z,1.30
2023-02-02T09:06:33.355Z,1.10
2023-02-02T09:09:00.998Z,0.90
2023-02-02T09:11:28.947Z,0.85
2023-02-02T09:13:59.698Z,1.10
2023-02-02T09:16:28.408Z,0.80
2023-02-02T09:18:56.856Z,1.23
2023-02-02T09:23:54.115Z,0.80
2023-02-02T09:26:25.712Z,0.63
2023-02-02T09:28:57.829Z,0.80
2023-02-02T09:31:26.480Z,0.60
2023-02-02T09:33:54.063Z,1.02
2023-02-02T09:36:24.205Z,0.70
2023-02-02T09:38:51.893Z,0.80
2023-02-02T09:41:36.970Z,1.08
2023-02-02T09:44:35.195Z,0.95
2023-02-02T09:47:51.695Z,1.33
2023-02-02T09:50:45.919Z,1.25
2023-02-02T09:53:19.070Z,0.60
2023-02-02T09:55:51.580Z,0.65
2023-02-02T09:58:33.515Z,0.90
2023-02-02T10:01:31.894Z,0.80
2023-02-02T10:04:20.255Z,1.00
2023-02-02T10:06:54.925Z,0.90
2023-02-02T10:09:43.753Z,0.70
2023-02-02T10:12:32.270Z,1.13
2023-02-02T10:15:30.716Z,0.80
2023-02-02T10:18:12.813Z,0.55
2023-02-02T10:20:51.038Z,0.90
2023-02-02T10:23:40.150Z,1.08
2023-02-02T10:26:38.522Z,0.80
2023-02-02T10:29:24.492Z,0.70
2023-02-02T10:32:10.146Z,1.00
2023-02-02T10:35:13.870Z,0.80
2023-02-02T10:38:36.688Z,0.68
2023-02-02T10:41:19.977Z,1.05
2023-02-02T10:44:16.963Z,0.73
2023-02-02T10:46:52.292Z,0.70
2023-02-02T10:49:28.757Z,1.17
2023-02-02T10:52:14.293Z,0.90
2023-02-02T10:55:37.920Z,1.02
2023-02-02T10:58:14.026Z,0.70
2023-02-02T11:00:56.171Z,1.10
2023-02-02T11:03:32.880Z,0.63
2023-02-02T11:06:26.638Z,1.00
2023-02-02T11:08:59.641Z,0.82
2023-02-02T11:11:48.367Z,0.80
2023-02-02T11:14:44.563Z,1.00
2023-02-02T11:17:23.664Z,1.08
2023-02-02T11:19:52.578Z,1.05
2023-02-02T11:22:38.550Z,0.73
2023-02-02T11:25:27.236Z,1.02
2023-02-02T11:27:54.742Z,0.63
2023-02-02T11:30:27.509Z,1.00
2023-02-02T11:32:55.934Z,0.73
2023-02-02T11:35:27.016Z,0.77
2023-02-02T11:38:09.028Z,0.70
2023-02-02T11:41:03.817Z,1.85
2023-02-02T11:43:41.697Z,0.70
2023-02-02T11:46:24.767Z,0.93
2023-02-02T11:49:03.393Z,0.88
2023-02-02T11:51:32.527Z,1.10
2023-02-02T11:54:18.130Z,1.00
2023-02-02T11:56:54.289Z,1.38
2023-02-02T11:59:36.938Z,1.10
2023-02-02T12:02:13.270Z,0.80
2023-02-02T12:04:41.254Z,1.23
2023-02-02T12:07:29.778Z,0.70
2023-02-02T12:10:13.592Z,1.10
2023-02-02T12:13:07.485Z,0.70
2023-02-02T12:15:52.983Z,0.98
2023-02-02T12:18:38.606Z,0.77
2023-02-02T12:21:33.361Z,1.40
2023-02-02T12:24:47.955Z,1.00
2023-02-02T12:27:33.031Z,1.35
2023-02-02T12:30:40.965Z,1.00
2023-02-02T12:36:16.394Z,0.63
2023-02-02T12:39:11.741Z,0.80
2023-02-02T12:42:06.543Z,0.73
2023-02-02T12:45:26.375Z,0.65
2023-02-02T12:48:21.386Z,0.90
2023-02-02T12:51:07.691Z,1.08
2023-02-02T12:54:35.037Z,0.80
2023-02-02T12:57:35.149Z,0.95
2023-02-02T13:00:35.262Z,1.00
2023-02-02T13:03:42.250Z,0.93
2023-02-02T13:06:19.311Z,0.87
2023-02-02T13:09:02.221Z,0.82
2023-02-02T13:11:57.946Z,0.90
2023-02-02T13:14:51.677Z,1.25
2023-02-02T13:17:38.447Z,0.88
2023-02-02T13:20:21.683Z,1.00
2023-02-02T13:22:55.253Z,0.90
2023-02-02T13:25:34.821Z,1.30
2023-02-02T13:28:04.686Z,1.10
2023-02-02T13:30:38.749Z,1.17
2023-02-02T13:33:29.824Z,1.02
2023-02-02T13:36:25.954Z,0.90
2023-02-02T13:39:01.705Z,1.40
2023-02-02T13:41:31.481Z,1.98
2023-02-02T13:44:32.691Z,1.23
2023-02-02T13:47:09.735Z,1.52
2023-02-02T13:49:52.917Z,1.20
2023-02-02T13:53:02.893Z,0.98
2023-02-02T13:56:24.593Z,1.30
2023-02-02T13:59:41.357Z,1.30
2023-02-02T14:02:26.938Z,1.08
2023-02-02T14:05:00.831Z,1.35
2023-02-02T14:07:44.113Z,1.35
2023-02-02T14:10:35.233Z,1.15
2023-02-02T14:13:36.180Z,2.22
2023-02-02T14:16:07.592Z,1.38
2023-02-02T14:18:53.205Z,1.27
2023-02-02T14:21:32.882Z,0.85
2023-02-02T14:24:27.439Z,1.30
2023-02-02T14:27:01.760Z,1.95
2023-02-02T14:29:31.986Z,1.25
2023-02-02T14:32:24.297Z,1.13
2023-02-02T14:35:15.205Z,1.42
2023-02-02T14:37:59.074Z,1.55
2023-02-02T14:40:43.618Z,1.10
2023-02-02T14:43:45.772Z,0.90
2023-02-02T14:46:13.229Z,1.25
2023-02-02T14:48:48.317Z,1.03
2023-02-02T14:51:25.077Z,1.35
2023-02-02T14:54:01.248Z,1.05
2023-02-02T14:56:53.035Z,1.77
2023-02-02T14:59:46.151Z,1.58
2023-02-02T15:02:13.342Z,1.30
2023-02-02T15:04:41.178Z,1.77
2023-02-02T15:07:23.601Z,1.42
2023-02-02T15:09:56.314Z,1.50
2023-02-02T15:12:38.521Z,1.67
2023-02-02T15:15:23.480Z,1.23
2023-02-02T15:18:05.452Z,1.40
2023-02-02T15:20:52.137Z,1.50
2023-02-02T15:23:34.532Z,1.60
2023-02-02T15:26:28.301Z,2.55
2023-02-02T15:29:06.886Z,1.45
2023-02-02T15:31:52.235Z,1.60
2023-02-02T15:34:38.120Z,1.27
2023-02-02T15:37:12.310Z,1.25
2023-02-02T15:39:51.574Z,2.00
2023-02-02T15:42:54.405Z,1.20
2023-02-02T15:45:48.484Z,1.85
2023-02-02T15:48:30.763Z,1.40
2023-02-02T15:51:17.283Z,1.60
2023-02-02T15:53:44.496Z,1.45
2023-02-02T15:56:29.625Z,1.33
2023-02-02T15:59:00.405Z,2.28
2023-02-02T16:01:33.090Z,1.52
2023-02-02T16:04:31.601Z,1.90
2023-02-02T16:06:59.090Z,1.23
2023-02-02T16:09:33.677Z,1.48
2023-02-02T16:12:04.121Z,1.52
2023-02-02T16:14:38.396Z,1.10
2023-02-02T16:17:21.646Z,1.20
2023-02-02T16:19:56.525Z,1.48
2023-02-02T16:22:25.928Z,2.15
2023-02-02T16:24:59.144Z,1.40
2023-02-02T16:27:30.084Z,1.48
2023-02-02T16:30:07.128Z,1.75
2023-02-02T16:32:39.259Z,1.55
2023-02-02T16:35:33.975Z,1.50
2023-02-02T16:38:33.648Z,1.77
2023-02-02T16:41:29.073Z,1.63
2023-02-02T16:43:56.703Z,1.92
2023-02-02T16:46:49.898Z,1.85
2023-02-02T16:49:28.541Z,1.55
2023-02-02T16:52:16.154Z,1.40
2023-02-02T16:54:53.312Z,0.90
2023-02-02T16:57:34.321Z,1.05
2023-02-02T17:00:07.482Z,1.17
2023-02-02T17:02:48.190Z,1.40
2023-02-02T17:05:48.864Z,1.65
2023-02-02T17:08:29.179Z,1.50
2023-02-02T17:11:23.121Z,1.30
2023-02-02T17:13:51.397Z,1.02
2023-02-02T17:18:51.996Z,1.10
2023-02-02T17:21:25.804Z,0.88
2023-02-02T17:23:56.946Z,0.80
2023-02-02T17:26:24.317Z,0.98
2023-02-02T17:28:56.809Z,1.60
2023-02-02T17:31:24.342Z,6.45
2023-02-02T17:33:51.699Z,3.25
2023-02-02T17:36:19.048Z,1.25
2023-02-02T17:38:46.293Z,1.63
2023-02-02T17:41:14.442Z,1.23
2023-02-02T17:43:42.957Z,1.00
2023-02-02T17:46:13.416Z,0.80
2023-02-02T17:48:40.920Z,1.30
2023-02-02T17:51:16.513Z,1.40
2023-02-02T17:53:45.299Z,1.48
2023-02-02T17:56:13.714Z,1.33
2023-02-02T17:58:41.019Z,1.15
2023-02-02T18:01:11.722Z,1.00
2023-02-02T18:03:41.337Z,1.02
2023-02-02T18:06:11.196Z,1.00
2023-02-02T18:08:38.521Z,1.30
2023-02-02T18:11:05.952Z,1.17
2023-02-02T18:13:33.372Z,1.10
2023-02-02T18:16:00.779Z,1.80
2023-02-02T18:18:29.780Z,1.70
2023-02-02T18:20:58.736Z,1.15
2023-02-02T18:23:26.125Z,1.60
2023-02-02T18:25:53.508Z,1.40
2023-02-02T18:28:21.010Z,1.57
2023-02-02T18:30:48.375Z,1.05
2023-02-02T18:33:20.142Z,1.37
2023-02-02T18:35:48.181Z,1.55
2023-02-02T18:38:15.981Z,1.55
2023-02-02T18:40:43.319Z,1.20
2023-02-02T18:43:10.737Z,1.05
2023-02-02T18:45:38.010Z,0.98
2023-02-02T18:48:05.583Z,1.60
2023-02-02T18:50:32.858Z,1.30
2023-02-02T18:53:00.274Z,1.30
2023-02-02T18:55:27.892Z,1.30
2023-02-02T18:57:55.439Z,1.58
2023-02-02T19:00:23.065Z,1.17
2023-02-02T19:02:50.316Z,0.70
2023-02-02T19:05:36.457Z,1.05
2023-02-02T19:08:05.882Z,1.25
2023-02-02T19:10:33.242Z,1.40
2023-02-02T19:13:18.057Z,1.20
2023-02-02T19:15:49.498Z,1.23
2023-02-02T19:18:25.325Z,1.20
2023-02-02T19:20:53.108Z,1.20
2023-02-02T19:23:24.026Z,1.25
2023-02-02T19:25:54.891Z,1.70
2023-02-02T19:28:29.784Z,1.08
2023-02-02T19:31:02.327Z,1.15
2023-02-02T19:33:43.532Z,1.45
2023-02-02T19:36:30.937Z,1.25
2023-02-02T19:41:40.763Z,1.45
2023-02-02T19:44:18.778Z,1.38
2023-02-02T19:46:51.179Z,1.00
2023-02-02T19:49:32.920Z,1.30
2023-02-02T19:52:04.047Z,1.10
2023-02-02T19:54:38.487Z,0.75
2023-02-02T19:57:36.501Z,0.98
2023-02-02T20:02:48.638Z,1.23
2023-02-02T20:05:24.336Z,1.30
2023-02-02T20:08:33.267Z,1.17
2023-02-02T20:11:32.015Z,1.23
2023-02-02T20:14:19.284Z,1.73
2023-02-02T20:16:56.776Z,1.60
2023-02-02T20:19:33.976Z,1.42
2023-02-02T20:22:02.311Z,1.15
2023-02-02T20:29:48.733Z,1.58
2023-02-02T20:32:30.382Z,1.67
2023-02-02T20:34:59.387Z,1.30
2023-02-02T20:37:31.572Z,1.25
2023-02-02T20:40:22.288Z,1.00
2023-02-02T20:42:50.487Z,1.00
2023-02-02T20:45:19.497Z,1.92
2023-02-02T20:47:47.120Z,1.38
2023-02-02T20:50:20.601Z,1.67
2023-02-02T20:52:48.016Z,1.60
2023-02-02T20:55:16.876Z,1.20
2023-02-02T20:57:44.310Z,1.80
2023-02-02T21:00:17.268Z,1.00
2023-02-02T21:02:44.648Z,1.30
2023-02-02T21:05:11.975Z,1.50
2023-02-02T21:07:39.267Z,1.20
2023-02-02T21:10:07.502Z,1.45
2023-02-02T21:12:34.802Z,1.33
2023-02-02T21:15:04.002Z,1.45
2023-02-02T21:17:31.360Z,1.15
2023-02-02T21:19:58.698Z,1.50
2023-02-02T21:22:26.010Z,1.05
2023-02-02T21:24:53.698Z,1.35
2023-02-02T21:27:21.010Z,0.95
2023-02-02T21:29:48.456Z,1.40
2023-02-02T21:32:15.753Z,1.20
2023-02-02T21:34:43.017Z,1.15
2023-02-02T21:37:15.754Z,1.30
2023-02-02T21:39:50.911Z,1.65
2023-02-02T21:42:21.829Z,1.58
2023-02-02T21:45:00.274Z,1.60
2023-02-02T21:47:45.789Z,1.42
2023-02-02T21:50:23.956Z,1.25
2023-02-02T21:52:51.408Z,1.60
2023-02-02T21:55:37.087Z,1.80
2023-02-02T21:58:32.463Z,1.73
2023-02-02T22:01:39.715Z,1.83
2023-02-02T22:04:20.569Z,1.63
2023-02-02T22:07:20.614Z,1.85
2023-02-02T22:09:48.643Z,1.92
2023-02-02T22:12:23.198Z,1.90
2023-02-02T22:15:00.589Z,1.88
2023-02-02T22:17:41.845Z,1.88
2023-02-02T22:20:15.260Z,1.80
2023-02-02T22:22:46.738Z,1.75
2023-02-02T22:25:17.028Z,1.60
2023-02-02T22:27:51.857Z,1.52
2023-02-02T22:30:34.179Z,1.50
2023-02-02T22:33:01.509Z,1.38
2023-02-02T22:35:28.766Z,1.75
2023-02-02T22:37:56.225Z,2.28
2023-02-02T22:40:24.651Z,1.40
2023-02-02T22:42:58.614Z,1.52
2023-02-02T22:45:26.806Z,1.77
2023-02-02T22:47:54.587Z,2.45
2023-02-02T22:50:27.330Z,1.17
2023-02-02T22:52:54.995Z,2.05
2023-02-02T22:55:22.881Z,2.37
2023-02-02T22:57:50.251Z,1.42
2023-02-02T23:00:25.469Z,1.60
2023-02-02T23:02:54.629Z,1.50
2023-02-02T23:05:24.184Z,1.52
2023-02-02T23:07:52.274Z,0.90
2023-02-02T23:10:27.494Z,1.40
2023-02-02T23:12:58.747Z,2.25
2023-02-02T23:15:27.188Z,1.38
2023-02-02T23:20:21.917Z,1.58
2023-02-02T23:22:50.864Z,2.40
2023-02-02T23:25:18.935Z,1.58
2023-02-02T23:27:46.397Z,1.92
2023-02-02T23:30:15.035Z,1.95
2023-02-02T23:32:42.907Z,1.25
2023-02-02T23:35:11.120Z,1.85
2023-02-02T23:40:07.512Z,1.70
2023-02-02T23:42:34.964Z,1.90
2023-02-02T23:45:02.392Z,1.67
2023-02-02T23:47:29.699Z,1.60
2023-02-02T23:49:57.168Z,2.03
2023-02-02T23:52:25.013Z,1.90
2023-02-02T23:54:53.044Z,2.03
2023-02-02T23:57:21.060Z,2.10
2023-02-02T23:59:48.335Z,1.83
